createdAt,value
2019-02-08T00:00:05.998Z,1021.2
2019-02-08T00:01:03.415Z,1021.1
2019-02-08T00:02:03.377Z,1021.1
2019-02-08T00:03:03.938Z,1021.1
2019-02-08T00:04:03.322Z,1021.1
2019-02-08T00:05:03.985Z,1021.1
2019-02-08T00:06:03.044Z,1021.1
2019-02-08T00:07:05.166Z,1021.1
2019-02-08T00:08:03.408Z,1021.1
2019-02-08T00:09:03.758Z,1021.1
2019-02-08T00:10:03.799Z,1021.2
2019-02-08T00:11:03.538Z,1021.2
2019-02-08T00:12:03.037Z,1021.2
2019-02-08T00:13:03.482Z,1021.1
2019-02-08T00:14:03.611Z,1021.1
2019-02-08T00:15:06.287Z,1021.2
2019-02-08T00:16:03.657Z,1021.1
2019-02-08T00:17:03.490Z,1021.2
2019-02-08T00:18:03.234Z,1021.1
2019-02-08T00:19:03.129Z,1021.2
2019-02-08T00:20:03.695Z,1021.2
2019-02-08T00:21:02.668Z,1021.1
2019-02-08T00:22:05.237Z,1021.1
2019-02-08T00:23:02.861Z,1021.2
2019-02-08T00:24:03.487Z,1021.1
2019-02-08T00:25:03.927Z,1021.2
2019-02-08T00:26:03.232Z,1021.2
2019-02-08T00:27:03.718Z,1021.4
2019-02-08T00:28:03.300Z,1021.4
2019-02-08T00:29:03.430Z,1021.4
2019-02-08T00:30:05.527Z,1021.4
2019-02-08T00:31:03.715Z,1021.4
2019-02-08T00:32:03.787Z,1021.4
2019-02-08T00:33:03.184Z,1021.4
2019-02-08T00:34:03.955Z,1021.5
2019-02-08T00:35:03.532Z,1021.4
2019-02-08T00:36:03.913Z,1021.4
2019-02-08T00:37:04.944Z,1021.4
2019-02-08T00:38:03.688Z,1021.4
2019-02-08T00:39:03.564Z,1021.4
2019-02-08T00:40:03.208Z,1021.4
2019-02-08T00:41:03.568Z,1021.4
2019-02-08T00:42:03.253Z,1021.4
2019-02-08T00:43:03.559Z,1021.3
2019-02-08T00:44:03.126Z,1021.3
2019-02-08T00:45:05.957Z,1021.2
2019-02-08T00:46:03.777Z,1021.2
2019-02-08T00:47:03.728Z,1021.5
2019-02-08T00:48:03.272Z,1021.4
2019-02-08T00:49:03.506Z,1021.4
2019-02-08T00:50:03.906Z,1021.5
2019-02-08T00:51:03.281Z,1021.5
2019-02-08T00:52:05.162Z,1021.5
2019-02-08T00:53:48.367Z,1021.5
2019-02-08T00:54:03.949Z,1021.5
2019-02-08T00:55:04.031Z,1021.6
2019-02-08T00:56:03.494Z,1021.6
2019-02-08T00:57:04.036Z,1021.5
2019-02-08T00:58:03.437Z,1021.6
2019-02-08T00:59:03.768Z,1021.6
2019-02-08T01:00:04.567Z,1021.6
2019-02-08T01:01:03.964Z,1021.6
2019-02-08T01:02:03.254Z,1021.6
2019-02-08T01:03:03.386Z,1021.7
2019-02-08T01:04:03.720Z,1021.7
2019-02-08T01:05:02.012Z,1021.7
2019-02-08T01:06:03.916Z,1021.6
2019-02-08T01:07:05.383Z,1021.6
2019-02-08T01:08:04.023Z,1021.6
2019-02-08T01:09:03.339Z,1021.7
2019-02-08T01:10:03.883Z,1021.6
2019-02-08T01:11:03.065Z,1021.7
2019-02-08T01:12:03.704Z,1021.7
2019-02-08T01:13:03.205Z,1021.7
2019-02-08T01:14:03.833Z,1021.7
2019-02-08T01:15:03.274Z,1021.7
2019-02-08T01:16:03.321Z,1021.7
2019-02-08T01:17:03.919Z,1021.7
2019-02-08T01:18:03.658Z,1021.8
2019-02-08T01:19:03.026Z,1021.7
2019-02-08T01:20:03.496Z,1021.8
2019-02-08T01:21:03.956Z,1021.8
2019-02-08T01:22:05.666Z,1021.8
2019-02-08T01:23:03.590Z,1021.8
2019-02-08T01:24:03.227Z,1021.8
2019-02-08T01:25:03.673Z,1021.9
2019-02-08T01:26:03.119Z,1021.8
2019-02-08T01:27:03.081Z,1021.8
2019-02-08T01:28:03.254Z,1021.8
2019-02-08T01:29:03.035Z,1021.9
2019-02-08T01:30:03.132Z,1021.9
2019-02-08T01:31:03.538Z,1021.9
2019-02-08T01:32:03.503Z,1021.9
2019-02-08T01:33:03.560Z,1021.9
2019-02-08T01:34:02.899Z,1022
2019-02-08T01:35:03.405Z,1021.9
2019-02-08T01:36:03.064Z,1021.9
2019-02-08T01:37:03.558Z,1021.9
2019-02-08T01:38:03.770Z,1021.9
2019-02-08T01:39:03.784Z,1021.9
2019-02-08T01:40:03.280Z,1021.9
2019-02-08T01:41:03.389Z,1021.9
2019-02-08T01:42:02.989Z,1021.9
2019-02-08T01:43:03.433Z,1021.9
2019-02-08T01:44:03.717Z,1021.9
2019-02-08T01:45:03.207Z,1021.9
2019-02-08T01:46:03.736Z,1021.8
2019-02-08T01:47:02.983Z,1021.8
2019-02-08T01:48:03.735Z,1021.9
2019-02-08T01:49:03.840Z,1021.9
2019-02-08T01:50:03.224Z,1021.9
2019-02-08T01:51:03.938Z,1021.8
2019-02-08T01:52:03.575Z,1021.9
2019-02-08T01:53:02.908Z,1022
2019-02-08T01:54:03.604Z,1021.9
2019-02-08T01:55:03.771Z,1022
2019-02-08T01:56:03.873Z,1022
2019-02-08T01:57:03.574Z,1022
2019-02-08T01:58:03.393Z,1022
2019-02-08T01:59:03.551Z,1021.9
2019-02-08T02:00:03.140Z,1022
2019-02-08T02:01:03.205Z,1022
2019-02-08T02:02:03.115Z,1021.9
2019-02-08T02:03:03.696Z,1022
2019-02-08T02:04:03.011Z,1021.9
2019-02-08T02:05:03.613Z,1022
2019-02-08T02:06:03.999Z,1022
2019-02-08T02:07:03.337Z,1022
2019-02-08T02:08:03.816Z,1022
2019-02-08T02:09:03.181Z,1022
2019-02-08T02:10:03.760Z,1022
2019-02-08T02:11:03.272Z,1022.1
2019-02-08T02:12:03.458Z,1022
2019-02-08T02:13:03.912Z,1022
2019-02-08T02:14:03.469Z,1022
2019-02-08T02:15:03.465Z,1022.1
2019-02-08T02:16:04.531Z,1022.1
2019-02-08T02:17:02.886Z,1022.1
2019-02-08T02:18:03.486Z,1022
2019-02-08T02:19:03.848Z,1022.1
2019-02-08T02:20:03.551Z,1022.1
2019-02-08T02:21:03.679Z,1022.2
2019-02-08T02:22:03.872Z,1022.1
2019-02-08T02:23:03.692Z,1022.2
2019-02-08T02:24:03.774Z,1022.1
2019-02-08T02:25:03.460Z,1022.2
2019-02-08T02:26:03.175Z,1022.2
2019-02-08T02:27:03.673Z,1022.1
2019-02-08T02:28:03.200Z,1022.2
2019-02-08T02:29:03.551Z,1022.1
2019-02-08T02:30:03.816Z,1022.2
2019-02-08T02:31:03.342Z,1022.1
2019-02-08T02:32:03.637Z,1022.2
2019-02-08T02:33:03.677Z,1022.1
2019-02-08T02:34:03.484Z,1022.2
2019-02-08T02:35:03.662Z,1022.2
2019-02-08T02:36:03.263Z,1022.2
2019-02-08T02:37:03.819Z,1022.2
2019-02-08T02:38:03.286Z,1022.2
2019-02-08T02:39:03.882Z,1022.2
2019-02-08T02:40:03.393Z,1022.2
2019-02-08T02:41:03.417Z,1022.2
2019-02-08T02:42:03.502Z,1022.2
2019-02-08T02:43:03.847Z,1022.2
2019-02-08T02:44:03.546Z,1022.2
2019-02-08T02:45:03.630Z,1022.2
2019-02-08T02:46:02.999Z,1022.2
2019-02-08T02:47:03.815Z,1022.2
2019-02-08T02:48:03.578Z,1022.2
2019-02-08T02:49:03.594Z,1022.2
2019-02-08T02:50:03.213Z,1022.2
2019-02-08T02:51:03.456Z,1022.2
2019-02-08T02:52:02.973Z,1022.2
2019-02-08T02:53:03.696Z,1022.3
2019-02-08T02:54:05.462Z,1022.3
2019-02-08T02:55:03.647Z,1022.2
2019-02-08T02:56:03.421Z,1022.3
2019-02-08T02:57:03.858Z,1022.3
2019-02-08T02:58:03.262Z,1022.2
2019-02-08T02:59:03.959Z,1022.4
2019-02-08T03:00:03.568Z,1022.3
2019-02-08T03:01:03.923Z,1022.3
2019-02-08T03:02:03.708Z,1022.3
2019-02-08T03:03:03.176Z,1022.3
2019-02-08T03:04:03.250Z,1022.3
2019-02-08T03:05:02.996Z,1022.3
2019-02-08T03:06:03.435Z,1022.2
2019-02-08T03:07:03.799Z,1022.2
2019-02-08T03:08:02.856Z,1022.2
2019-02-08T03:09:03.336Z,1022.3
2019-02-08T03:10:03.586Z,1022.2
2019-02-08T03:11:02.977Z,1022.4
2019-02-08T03:12:02.904Z,1022.2
2019-02-08T03:13:03.333Z,1022.3
2019-02-08T03:14:03.690Z,1022.2
2019-02-08T03:15:03.584Z,1022.3
2019-02-08T03:16:02.989Z,1022.2
2019-02-08T03:17:03.335Z,1022.3
2019-02-08T03:18:03.718Z,1022.3
2019-02-08T03:19:03.192Z,1022.2
2019-02-08T03:20:03.449Z,1022.2
2019-02-08T03:21:03.182Z,1022.3
2019-02-08T03:22:03.793Z,1022.3
2019-02-08T03:23:02.970Z,1022.3
2019-02-08T03:24:03.856Z,1022.4
2019-02-08T03:25:03.530Z,1022.4
2019-02-08T03:26:04.106Z,1022.3
2019-02-08T03:27:03.055Z,1022.4
2019-02-08T03:28:03.808Z,1022.3
2019-02-08T03:29:03.335Z,1022.4
2019-02-08T03:30:03.787Z,1022.4
2019-02-08T03:31:03.423Z,1022.5
2019-02-08T03:32:03.771Z,1022.4
2019-02-08T03:33:03.874Z,1022.3
2019-02-08T03:34:03.126Z,1022.3
2019-02-08T03:35:03.135Z,1022.4
2019-02-08T03:36:03.846Z,1022.3
2019-02-08T03:37:03.148Z,1022.3
2019-02-08T03:38:03.798Z,1022.3
2019-02-08T03:39:03.426Z,1022.3
2019-02-08T03:40:03.561Z,1022.4
2019-02-08T03:41:03.774Z,1022.3
2019-02-08T03:42:03.727Z,1022.3
2019-02-08T03:43:03.837Z,1022.2
2019-02-08T03:44:03.303Z,1022.3
2019-02-08T03:45:03.211Z,1022.3
2019-02-08T03:46:03.899Z,1022.3
2019-02-08T03:47:03.245Z,1022.4
2019-02-08T03:48:03.796Z,1022.4
2019-02-08T03:49:03.302Z,1022.3
2019-02-08T03:50:03.251Z,1022.4
2019-02-08T03:51:03.616Z,1022.4
2019-02-08T03:52:03.283Z,1022.4
2019-02-08T03:53:03.878Z,1022.4
2019-02-08T03:54:03.260Z,1022.4
2019-02-08T03:55:03.755Z,1022.4
2019-02-08T03:56:03.568Z,1022.5
2019-02-08T03:57:03.111Z,1022.5
2019-02-08T03:58:03.778Z,1022.4
2019-02-08T03:59:03.230Z,1022.4
2019-02-08T04:00:03.704Z,1022.4
2019-02-08T04:01:03.392Z,1022.4
2019-02-08T04:02:03.990Z,1022.4
2019-02-08T04:03:03.537Z,1022.4
2019-02-08T04:04:03.149Z,1022.2
2019-02-08T04:05:03.762Z,1022.4
2019-02-08T04:06:03.094Z,1022.4
2019-02-08T04:07:03.252Z,1022.5
2019-02-08T04:08:03.798Z,1022.4
2019-02-08T04:09:03.355Z,1022.3
2019-02-08T04:10:03.338Z,1022.4
2019-02-08T04:11:03.589Z,1022.3
2019-02-08T04:12:02.981Z,1022.4
2019-02-08T04:13:03.625Z,1022.3
2019-02-08T04:14:03.448Z,1022.2
2019-02-08T04:15:04.151Z,1022.3
2019-02-08T04:16:03.628Z,1022.3
2019-02-08T04:17:03.356Z,1022.3
2019-02-08T04:18:03.449Z,1022.3
2019-02-08T04:19:03.325Z,1022.4
2019-02-08T04:20:03.933Z,1022.3
2019-02-08T04:21:03.455Z,1022.4
2019-02-08T04:22:03.867Z,1022.4
2019-02-08T04:23:03.873Z,1022.4
2019-02-08T04:24:03.686Z,1022.3
2019-02-08T04:25:03.356Z,1022.4
2019-02-08T04:26:03.599Z,1022.4
2019-02-08T04:27:03.171Z,1022.3
2019-02-08T04:28:03.886Z,1022.4
2019-02-08T04:29:03.614Z,1022.4
2019-02-08T04:30:03.177Z,1022.4
2019-02-08T04:31:03.483Z,1022.4
2019-02-08T04:32:03.130Z,1022.4
2019-02-08T04:33:03.743Z,1022.4
2019-02-08T04:34:03.163Z,1022.5
2019-02-08T04:35:03.682Z,1022.5
2019-02-08T04:36:03.147Z,1022.6
2019-02-08T04:37:04.051Z,1022.6
2019-02-08T04:38:03.137Z,1022.6
2019-02-08T04:39:03.635Z,1022.6
2019-02-08T04:40:03.402Z,1022.6
2019-02-08T04:41:03.845Z,1022.7
2019-02-08T04:42:03.568Z,1022.6
2019-02-08T04:43:03.914Z,1022.6
2019-02-08T04:44:03.119Z,1022.6
2019-02-08T04:45:02.999Z,1022.6
2019-02-08T04:46:03.569Z,1022.4
2019-02-08T04:47:03.243Z,1022.5
2019-02-08T04:48:03.803Z,1022.5
2019-02-08T04:49:03.184Z,1022.6
2019-02-08T04:50:03.378Z,1022.6
2019-02-08T04:51:02.953Z,1022.6
2019-02-08T04:52:03.624Z,1022.6
2019-02-08T04:53:03.009Z,1022.5
2019-02-08T04:54:03.536Z,1022.5
2019-02-08T04:55:03.584Z,1022.6
2019-02-08T04:56:03.753Z,1022.5
2019-02-08T04:57:03.195Z,1022.4
2019-02-08T04:58:03.918Z,1022.5
2019-02-08T04:59:03.281Z,1022.6
2019-02-08T05:00:04.006Z,1022.4
2019-02-08T05:01:03.400Z,1022.4
2019-02-08T05:02:03.995Z,1022.5
2019-02-08T05:03:03.374Z,1022.5
2019-02-08T05:04:03.099Z,1022.5
2019-02-08T05:05:03.708Z,1022.5
2019-02-08T05:06:03.072Z,1022.6
2019-02-08T05:07:02.947Z,1022.5
2019-02-08T05:08:03.382Z,1022.6
2019-02-08T05:09:03.631Z,1022.6
2019-02-08T05:10:03.513Z,1022.6
2019-02-08T05:11:03.276Z,1022.7
2019-02-08T05:12:03.352Z,1022.7
2019-02-08T05:13:03.272Z,1022.7
2019-02-08T05:14:03.830Z,1022.7
2019-02-08T05:15:03.734Z,1022.6
2019-02-08T05:16:02.945Z,1022.7
2019-02-08T05:17:03.704Z,1022.7
2019-02-08T05:18:03.647Z,1022.7
2019-02-08T05:19:03.063Z,1022.6
2019-02-08T05:20:03.664Z,1022.6
2019-02-08T05:21:03.220Z,1022.7
2019-02-08T05:22:03.813Z,1022.7
2019-02-08T05:23:03.390Z,1022.6
2019-02-08T05:24:03.994Z,1022.6
2019-02-08T05:25:03.609Z,1022.6
2019-02-08T05:26:03.872Z,1022.7
2019-02-08T05:27:02.839Z,1022.7
2019-02-08T05:28:03.909Z,1022.6
2019-02-08T05:29:03.301Z,1022.5
2019-02-08T05:30:03.977Z,1022.6
2019-02-08T05:31:03.072Z,1022.8
2019-02-08T05:32:03.536Z,1022.6
2019-02-08T05:33:03.301Z,1022.5
2019-02-08T05:34:03.503Z,1022.5
2019-02-08T05:35:03.049Z,1022.7
2019-02-08T05:36:03.731Z,1022.6
2019-02-08T05:37:03.300Z,1022.6
2019-02-08T05:38:03.930Z,1022.7
2019-02-08T05:39:03.174Z,1022.7
2019-02-08T05:40:03.726Z,1022.7
2019-02-08T05:41:03.391Z,1022.6
2019-02-08T05:42:03.999Z,1022.5
2019-02-08T05:43:03.347Z,1022.4
2019-02-08T05:44:03.750Z,1022.6
2019-02-08T05:45:03.328Z,1022.7
2019-02-08T05:46:03.106Z,1022.7
2019-02-08T05:47:03.522Z,1022.7
2019-02-08T05:48:03.083Z,1022.6
2019-02-08T05:49:02.886Z,1022.7
2019-02-08T05:50:03.435Z,1022.7
2019-02-08T05:51:03.099Z,1022.7
2019-02-08T05:52:03.881Z,1022.7
2019-02-08T05:53:03.160Z,1022.8
2019-02-08T05:54:03.486Z,1022.8
2019-02-08T05:55:03.227Z,1022.7
2019-02-08T05:56:03.786Z,1022.7
2019-02-08T05:57:03.806Z,1022.7
2019-02-08T05:58:03.600Z,1022.7
2019-02-08T05:59:03.133Z,1022.6
2019-02-08T06:00:03.622Z,1022.7
2019-02-08T06:01:03.195Z,1022.6
2019-02-08T06:02:03.008Z,1022.7
2019-02-08T06:03:03.773Z,1022.7
2019-02-08T06:04:03.041Z,1022.7
2019-02-08T06:05:03.550Z,1022.7
2019-02-08T06:06:03.519Z,1022.7
2019-02-08T06:07:03.173Z,1022.8
2019-02-08T06:08:03.663Z,1022.7
2019-02-08T06:09:03.018Z,1022.7
2019-02-08T06:10:03.351Z,1022.8
2019-02-08T06:11:03.910Z,1022.7
2019-02-08T06:12:03.217Z,1022.7
2019-02-08T06:13:04.185Z,1022.7
2019-02-08T06:14:03.458Z,1022.8
2019-02-08T06:15:03.979Z,1022.7
2019-02-08T06:16:03.346Z,1022.7
2019-02-08T06:17:03.185Z,1022.8
2019-02-08T06:18:03.103Z,1022.6
2019-02-08T06:19:03.624Z,1022.8
2019-02-08T06:20:03.174Z,1022.6
2019-02-08T06:21:03.737Z,1022.6
2019-02-08T06:22:03.135Z,1022.8
2019-02-08T06:23:03.385Z,1022.6
2019-02-08T06:24:03.903Z,1022.6
2019-02-08T06:25:05.325Z,1022.6
2019-02-08T06:26:03.057Z,1022.7
2019-02-08T06:27:03.202Z,1022.8
2019-02-08T06:28:03.497Z,1022.8
2019-02-08T06:29:03.045Z,1022.8
2019-02-08T06:30:03.362Z,1022.8
2019-02-08T06:31:02.768Z,1022.8
2019-02-08T06:32:03.329Z,1022.8
2019-02-08T06:33:03.402Z,1022.7
2019-02-08T06:34:03.745Z,1022.8
2019-02-08T06:35:03.329Z,1022.8
2019-02-08T06:36:03.759Z,1022.8
2019-02-08T06:37:03.272Z,1022.9
2019-02-08T06:38:03.716Z,1022.8
2019-02-08T06:39:03.182Z,1022.8
2019-02-08T06:40:03.838Z,1022.8
2019-02-08T06:41:03.439Z,1022.9
2019-02-08T06:42:03.447Z,1022.9
2019-02-08T06:43:03.060Z,1022.9
2019-02-08T06:44:03.462Z,1022.9
2019-02-08T06:45:03.194Z,1022.9
2019-02-08T06:46:03.539Z,1022.9
2019-02-08T06:47:03.083Z,1022.9
2019-02-08T06:48:03.785Z,1023
2019-02-08T06:49:03.351Z,1023
2019-02-08T06:50:03.742Z,1023
2019-02-08T06:51:04.504Z,1023
2019-02-08T06:52:03.737Z,1023
2019-02-08T06:53:03.338Z,1023
2019-02-08T06:54:03.701Z,1023
2019-02-08T06:55:11.498Z,1022.9
2019-02-08T06:56:03.475Z,1022.9
2019-02-08T06:57:03.134Z,1022.9
2019-02-08T06:58:03.657Z,1022.8
2019-02-08T06:59:03.999Z,1022.8
2019-02-08T07:00:03.796Z,1022.8
2019-02-08T07:01:03.010Z,1022.8
2019-02-08T07:02:03.580Z,1022.8
2019-02-08T07:03:03.965Z,1022.8
2019-02-08T07:04:03.474Z,1022.8
2019-02-08T07:05:03.985Z,1022.7
2019-02-08T07:06:03.552Z,1022.8
2019-02-08T07:07:03.062Z,1022.8
2019-02-08T07:08:03.367Z,1022.8
2019-02-08T07:09:03.677Z,1022.9
2019-02-08T07:10:02.927Z,1022.9
2019-02-08T07:11:03.545Z,1022.9
2019-02-08T07:12:03.326Z,1022.9
2019-02-08T07:13:03.732Z,1022.8
2019-02-08T07:14:02.842Z,1022.9
2019-02-08T07:15:03.528Z,1022.9
2019-02-08T07:16:03.695Z,1022.9
2019-02-08T07:17:03.378Z,1022.9
2019-02-08T07:18:04.003Z,1022.8
2019-02-08T07:19:03.496Z,1022.8
2019-02-08T07:20:03.795Z,1022.8
2019-02-08T07:21:03.288Z,1022.8
2019-02-08T07:22:03.744Z,1022.8
2019-02-08T07:23:03.424Z,1022.8
2019-02-08T07:24:03.602Z,1022.8
2019-02-08T07:25:03.188Z,1022.9
2019-02-08T07:26:03.681Z,1022.9
2019-02-08T07:27:03.168Z,1022.9
2019-02-08T07:28:03.692Z,1022.8
2019-02-08T07:29:03.334Z,1022.8
2019-02-08T07:30:03.725Z,1022.8
2019-02-08T07:31:03.355Z,1022.9
2019-02-08T07:32:03.667Z,1022.8
2019-02-08T07:33:02.892Z,1022.9
2019-02-08T07:34:03.695Z,1022.9
2019-02-08T07:35:03.133Z,1022.9
2019-02-08T07:36:03.510Z,1022.8
2019-02-08T07:37:03.297Z,1022.8
2019-02-08T07:38:03.318Z,1022.8
2019-02-08T07:39:03.038Z,1022.9
2019-02-08T07:40:03.524Z,1022.9
2019-02-08T07:41:03.901Z,1022.9
2019-02-08T07:42:03.553Z,1022.9
2019-02-08T07:43:03.871Z,1022.9
2019-02-08T07:44:02.106Z,1023
2019-02-08T07:45:03.832Z,1022.8
2019-02-08T07:46:03.128Z,1022.9
2019-02-08T07:47:03.649Z,1022.9
2019-02-08T07:48:03.016Z,1022.9
2019-02-08T07:49:03.738Z,1022.9
2019-02-08T07:50:03.901Z,1022.9
2019-02-08T07:51:03.420Z,1022.9
2019-02-08T07:52:03.536Z,1022.8
2019-02-08T07:53:03.366Z,1022.9
2019-02-08T07:54:03.843Z,1022.9
2019-02-08T07:55:03.247Z,1022.9
2019-02-08T07:56:03.676Z,1022.8
2019-02-08T07:57:02.980Z,1022.8
2019-02-08T07:58:03.515Z,1022.7
2019-02-08T07:59:03.832Z,1022.8
2019-02-08T08:00:03.345Z,1022.9
2019-02-08T08:01:03.100Z,1022.6
2019-02-08T08:02:03.609Z,1022.6
2019-02-08T08:03:03.033Z,1022.5
2019-02-08T08:04:03.500Z,1022.5
2019-02-08T08:05:04.092Z,1022.4
2019-02-08T08:06:03.412Z,1022.4
2019-02-08T08:07:03.705Z,1022.4
2019-02-08T08:08:03.274Z,1022.3
2019-02-08T08:09:03.088Z,1022.3
2019-02-08T08:10:03.443Z,1022.2
2019-02-08T08:11:03.988Z,1022.3
2019-02-08T08:12:03.552Z,1022.2
2019-02-08T08:13:03.438Z,1022.2
2019-02-08T08:14:03.073Z,1022.1
2019-02-08T08:15:03.574Z,1022.1
2019-02-08T08:16:03.018Z,1022.1
2019-02-08T08:17:03.585Z,1022.1
2019-02-08T08:18:02.796Z,1022
2019-02-08T08:19:03.548Z,1022
2019-02-08T08:20:02.979Z,1022.1
2019-02-08T08:21:03.659Z,1022.1
2019-02-08T08:22:03.913Z,1022.1
2019-02-08T08:23:03.417Z,1021.9
2019-02-08T08:24:03.674Z,1021.9
2019-02-08T08:25:03.249Z,1022
2019-02-08T08:26:03.634Z,1021.9
2019-02-08T08:27:03.050Z,1022
2019-02-08T08:28:03.612Z,1021.9
2019-02-08T08:29:03.040Z,1021.9
2019-02-08T08:30:03.578Z,1021.9
2019-02-08T08:31:03.645Z,1021.8
2019-02-08T08:32:03.304Z,1021.9
2019-02-08T08:33:03.674Z,1021.8
2019-02-08T08:34:03.083Z,1021.9
2019-02-08T08:35:03.365Z,1021.9
2019-02-08T08:36:03.779Z,1021.9
2019-02-08T08:37:03.177Z,1021.8
2019-02-08T08:38:03.635Z,1021.8
2019-02-08T08:39:03.133Z,1021.8
2019-02-08T08:40:03.853Z,1021.9
2019-02-08T08:41:03.109Z,1021.8
2019-02-08T08:42:03.196Z,1022
2019-02-08T08:43:03.033Z,1021.9
2019-02-08T08:44:03.009Z,1021.9
2019-02-08T08:45:03.876Z,1021.9
2019-02-08T08:46:03.067Z,1021.8
2019-02-08T08:47:03.847Z,1021.8
2019-02-08T08:48:02.988Z,1021.8
2019-02-08T08:49:03.471Z,1021.8
2019-02-08T08:50:02.905Z,1021.9
2019-02-08T08:51:03.831Z,1021.7
2019-02-08T08:52:03.340Z,1021.7
2019-02-08T08:53:03.623Z,1021.7
2019-02-08T08:54:02.970Z,1021.7
2019-02-08T08:55:03.455Z,1021.7
2019-02-08T08:56:04.036Z,1021.7
2019-02-08T08:57:03.135Z,1021.7
2019-02-08T08:58:02.824Z,1021.7
2019-02-08T08:59:03.543Z,1021.7
2019-02-08T09:00:03.009Z,1021.6
2019-02-08T09:01:03.407Z,1021.7
2019-02-08T09:02:03.787Z,1021.7
2019-02-08T09:03:03.901Z,1021.6
2019-02-08T09:04:03.103Z,1021.8
2019-02-08T09:05:03.675Z,1021.8
2019-02-08T09:06:09.321Z,1021.8
2019-02-08T09:07:03.998Z,1021.7
2019-02-08T09:08:03.214Z,1021.7
2019-02-08T09:09:03.458Z,1021.6
2019-02-08T09:10:03.446Z,1021.6
2019-02-08T09:11:03.714Z,1021.5
2019-02-08T09:12:03.169Z,1021.7
2019-02-08T09:13:03.543Z,1021.6
2019-02-08T09:14:03.009Z,1021.7
2019-02-08T09:15:03.436Z,1021.6
2019-02-08T09:16:03.259Z,1021.7
2019-02-08T09:17:03.533Z,1021.8
2019-02-08T09:18:03.021Z,1021.8
2019-02-08T09:19:03.628Z,1021.8
2019-02-08T09:20:03.222Z,1021.6
2019-02-08T09:21:03.616Z,1021.7
2019-02-08T09:22:03.145Z,1021.6
2019-02-08T09:23:03.446Z,1021.6
2019-02-08T09:24:03.075Z,1021.6
2019-02-08T09:25:03.431Z,1021.6
2019-02-08T09:26:02.828Z,1021.4
2019-02-08T09:27:03.346Z,1021.5
2019-02-08T09:28:03.277Z,1021.5
2019-02-08T09:29:03.304Z,1021.5
2019-02-08T09:30:03.341Z,1021.5
2019-02-08T09:31:03.454Z,1021.4
2019-02-08T09:32:03.530Z,1021.4
2019-02-08T09:33:03.498Z,1021.4
2019-02-08T09:34:03.323Z,1021.4
2019-02-08T09:35:03.193Z,1021.3
2019-02-08T09:36:03.116Z,1021.2
2019-02-08T09:37:03.591Z,1021.2
2019-02-08T09:38:03.738Z,1021.3
2019-02-08T09:39:02.807Z,1021.2
2019-02-08T09:40:03.725Z,1021.3
2019-02-08T09:41:03.289Z,1021.2
2019-02-08T09:42:03.615Z,1021.1
2019-02-08T09:43:03.132Z,1021
2019-02-08T09:44:03.666Z,1021.1
2019-02-08T09:45:03.583Z,1021
2019-02-08T09:46:03.343Z,1020.9
2019-02-08T09:47:03.754Z,1021
2019-02-08T09:48:03.154Z,1020.9
2019-02-08T09:49:03.930Z,1020.9
2019-02-08T09:50:03.249Z,1020.9
2019-02-08T09:51:02.850Z,1021
2019-02-08T09:52:03.763Z,1021
2019-02-08T09:53:03.674Z,1021
2019-02-08T09:54:03.659Z,1021.1
2019-02-08T09:55:03.619Z,1021
2019-02-08T09:56:03.149Z,1021.1
2019-02-08T09:57:03.782Z,1021.2
2019-02-08T09:58:03.070Z,1021.2
2019-02-08T09:59:03.542Z,1021.2
2019-02-08T10:00:03.878Z,1021.2
2019-02-08T10:01:03.573Z,1021.3
2019-02-08T10:02:02.798Z,1021.3
2019-02-08T10:03:03.478Z,1021.2
2019-02-08T10:04:02.982Z,1021.3
2019-02-08T10:05:04.022Z,1021.3
2019-02-08T10:06:03.009Z,1021.3
2019-02-08T10:07:02.839Z,1021.3
2019-02-08T10:08:03.219Z,1021.1
2019-02-08T10:09:03.844Z,1021.1
2019-02-08T10:10:03.465Z,1021.2
2019-02-08T10:11:03.647Z,1021
2019-02-08T10:12:03.087Z,1021
2019-02-08T10:13:03.494Z,1021.1
2019-02-08T10:14:03.287Z,1021.1
2019-02-08T10:15:04.385Z,1021
2019-02-08T10:16:03.273Z,1020.9
2019-02-08T10:17:03.852Z,1020.8
2019-02-08T10:18:03.476Z,1020.9
2019-02-08T10:19:03.914Z,1020.9
2019-02-08T10:20:03.387Z,1020.8
2019-02-08T10:21:03.080Z,1020.7
2019-02-08T10:22:03.261Z,1020.7
2019-02-08T10:23:03.694Z,1020.7
2019-02-08T10:24:02.877Z,1020.5
2019-02-08T10:25:03.804Z,1020.4
2019-02-08T10:26:05.985Z,1020.5
2019-02-08T10:27:02.938Z,1020.4
2019-02-08T10:28:03.142Z,1020.4
2019-02-08T10:29:03.444Z,1020.2
2019-02-08T10:30:02.158Z,1020.2
2019-02-08T10:31:03.858Z,1020.3
2019-02-08T10:32:03.616Z,1020.2
2019-02-08T10:33:03.138Z,1020.2
2019-02-08T10:34:03.595Z,1020.2
2019-02-08T10:35:03.297Z,1020.2
2019-02-08T10:36:03.932Z,1020.2
2019-02-08T10:37:03.234Z,1020.4
2019-02-08T10:38:03.134Z,1020.3
2019-02-08T10:39:03.815Z,1020.2
2019-02-08T10:40:03.228Z,1020.2
2019-02-08T10:41:03.610Z,1020.2
2019-02-08T10:42:03.172Z,1020.2
2019-02-08T10:43:03.979Z,1020.2
2019-02-08T10:44:04.062Z,1020.1
2019-02-08T10:45:03.652Z,1020.1
2019-02-08T10:46:02.996Z,1020.1
2019-02-08T10:47:03.566Z,1020
2019-02-08T10:48:02.777Z,1020
2019-02-08T10:49:03.249Z,1019.9
2019-02-08T10:50:03.858Z,1019.9
2019-02-08T10:51:03.714Z,1019.9
2019-02-08T10:52:03.126Z,1019.9
2019-02-08T10:53:03.747Z,1020
2019-02-08T10:54:03.209Z,1019.9
2019-02-08T10:55:03.727Z,1020
2019-02-08T10:56:03.275Z,1019.8
2019-02-08T10:57:03.198Z,1019.8
2019-02-08T10:58:02.900Z,1019.9
2019-02-08T10:59:03.665Z,1019.8
2019-02-08T11:00:03.347Z,1019.8
2019-02-08T11:01:03.679Z,1019.8
2019-02-08T11:02:02.975Z,1019.8
2019-02-08T11:03:03.468Z,1019.7
2019-02-08T11:04:03.185Z,1019.7
2019-02-08T11:05:03.804Z,1019.9
2019-02-08T11:06:03.353Z,1019.7
2019-02-08T11:07:03.683Z,1019.7
2019-02-08T11:08:03.365Z,1019.7
2019-02-08T11:09:03.729Z,1019.5
2019-02-08T11:10:03.282Z,1019.4
2019-02-08T11:11:03.607Z,1019.5
2019-02-08T11:12:03.300Z,1019.5
2019-02-08T11:13:03.617Z,1019.5
2019-02-08T11:14:02.860Z,1019.5
2019-02-08T11:15:03.337Z,1019.4
2019-02-08T11:16:03.358Z,1019.5
2019-02-08T11:17:03.559Z,1019.6
2019-02-08T11:18:03.286Z,1019.5
2019-02-08T11:19:03.756Z,1019.6
2019-02-08T11:20:03.558Z,1019.7
2019-02-08T11:21:02.978Z,1019.6
2019-02-08T11:22:03.451Z,1019.6
2019-02-08T11:23:03.853Z,1019.6
2019-02-08T11:24:03.508Z,1019.5
2019-02-08T11:25:03.113Z,1019.6
2019-02-08T11:26:03.586Z,1019.5
2019-02-08T11:27:03.008Z,1019.5
2019-02-08T11:28:03.447Z,1019.6
2019-02-08T11:29:03.853Z,1019.4
2019-02-08T11:30:03.622Z,1019.4
2019-02-08T11:31:03.415Z,1019.4
2019-02-08T11:32:03.471Z,1019.4
2019-02-08T11:33:03.291Z,1019.3
2019-02-08T11:34:04.011Z,1019.4
2019-02-08T11:35:03.200Z,1019.4
2019-02-08T11:36:03.174Z,1019.4
2019-02-08T11:37:03.539Z,1019.3
2019-02-08T11:38:03.119Z,1019.4
2019-02-08T11:39:03.303Z,1019.3
2019-02-08T11:40:04.003Z,1019.4
2019-02-08T11:41:03.381Z,1019.5
2019-02-08T11:42:03.074Z,1019.3
2019-02-08T11:43:03.523Z,1019.4
2019-02-08T11:44:03.847Z,1019.5
2019-02-08T11:45:03.574Z,1019.6
2019-02-08T11:46:02.963Z,1019.7
2019-02-08T11:47:03.519Z,1019.6
2019-02-08T11:48:03.804Z,1019.7
2019-02-08T11:49:03.371Z,1019.6
2019-02-08T11:50:03.836Z,1019.7
2019-02-08T11:51:03.644Z,1019.5
2019-02-08T11:52:03.189Z,1019.5
2019-02-08T11:53:03.640Z,1019.4
2019-02-08T11:54:03.138Z,1019.4
2019-02-08T11:55:03.915Z,1019.4
2019-02-08T11:56:03.148Z,1019.4
2019-02-08T11:57:03.844Z,1019.4
2019-02-08T11:58:03.413Z,1019.3
2019-02-08T11:59:03.887Z,1019.2
2019-02-08T12:00:03.469Z,1019.3
2019-02-08T12:01:03.057Z,1019.1
2019-02-08T12:02:03.413Z,1019.2
2019-02-08T12:03:02.949Z,1019.1
2019-02-08T12:04:03.880Z,1019
2019-02-08T12:05:03.813Z,1019
2019-02-08T12:06:03.022Z,1018.8
2019-02-08T12:07:03.778Z,1018.9
2019-02-08T12:08:02.991Z,1018.9
2019-02-08T12:09:03.768Z,1018.9
2019-02-08T12:10:03.293Z,1018.9
2019-02-08T12:11:03.493Z,1019
2019-02-08T12:12:03.034Z,1019
2019-02-08T12:13:03.436Z,1019
2019-02-08T12:14:03.781Z,1019.1
2019-02-08T12:15:03.558Z,1019.4
2019-02-08T12:16:03.950Z,1019.3
2019-02-08T12:17:03.396Z,1019.4
2019-02-08T12:18:03.520Z,1019.5
2019-02-08T12:19:03.068Z,1019.4
2019-02-08T12:20:03.737Z,1019.4
2019-02-08T12:21:03.251Z,1019.4
2019-02-08T12:22:03.615Z,1019.3
2019-02-08T12:23:03.813Z,1019.3
2019-02-08T12:24:03.443Z,1019.3
2019-02-08T12:25:03.820Z,1019.3
2019-02-08T12:26:03.212Z,1019.3
2019-02-08T12:27:03.878Z,1019.2
2019-02-08T12:28:03.184Z,1019.2
2019-02-08T12:29:03.507Z,1019.2
2019-02-08T12:30:03.904Z,1019.1
2019-02-08T12:31:03.333Z,1019.1